Time;durP1;ratioP1;P1;durP2;ratioP2;P2;SDS_P1;SDS_P2;PMS_P1;PMS_P2;Temp;Humidity;BMP_temperature;BMP_pressure;BME280_temperature;BME280_humidity;BME280_pressure;Samples;Min_cycle;Max_cycle;Signal;HPM_P1;HPM_P2
2022/12/21 00:00:08;;;;;;;18.53;13.27;;;10.60;99.90;;;;;;2617485;39;20858;-79
2022/12/21 00:05:57;;;;;;;19.43;13.83;;;10.60;99.90;;;;;;2617180;54;20450;-78
2022/12/21 00:15:07;;;;;;;20.90;14.77;;;10.60;99.90;;;;;;2616430;54;20466;-79
2022/12/21 00:21:01;;;;;;;23.33;13.57;;;10.50;99.90;;;;;;2616509;54;20391;-77
2022/12/21 00:26:48;;;;;;;22.60;15.13;;;10.50;99.90;;;;;;2617193;54;20367;-79
2022/12/21 00:32:36;;;;;;;23.03;14.60;;;10.40;99.90;;;;;;2616964;54;20131;-79
2022/12/21 00:38:24;;;;;;;22.83;15.90;;;10.40;99.90;;;;;;2616578;54;20134;-79
2022/12/21 00:44:12;;;;;;;21.87;15.30;;;10.40;99.90;;;;;;2616455;54;20131;-79
2022/12/21 00:50:00;;;;;;;22.57;15.47;;;10.40;99.90;;;;;;2617144;54;20387;-79
2022/12/21 00:55:59;;;;;;;25.90;16.17;;;10.40;99.90;;;;;;2616633;54;20758;-80
2022/12/21 01:01:46;;;;;;;25.53;16.83;;;10.40;99.90;;;;;;2615226;39;20773;-78
2022/12/21 01:07:34;;;;;;;30.30;19.87;;;10.40;99.90;;;;;;2616648;54;20697;-79
2022/12/21 01:10:39;;;;;;;27.60;19.50;;;10.30;99.90;;;;;;2615273;51;20428;-78
2022/12/21 01:13:05;;;;;;;30.67;19.77;;;10.30;99.90;;;;;;2616854;39;20500;-78
2022/12/21 01:18:53;;;;;;;34.47;20.90;;;10.30;99.90;;;;;;2617116;54;20395;-79
2022/12/21 01:24:41;;;;;;;30.40;20.40;;;10.30;99.90;;;;;;2616344;54;20122;-79
2022/12/21 01:30:28;;;;;;;30.97;20.47;;;10.30;99.90;;;;;;2616100;39;20538;-78
2022/12/21 01:36:18;;;;;;;37.63;22.33;;;10.30;99.90;;;;;;2616837;54;20126;-79
2022/12/21 01:42:10;;;;;;;32.00;20.93;;;10.30;99.90;;;;;;2619409;54;20387;-81
2022/12/21 01:48:05;;;;;;;41.37;21.40;;;10.30;99.90;;;;;;2617944;54;20383;-78
2022/12/21 01:53:59;;;;;;;37.47;21.67;;;10.20;99.90;;;;;;2619031;54;20367;-81
2022/12/21 01:59:54;;;;;;;40.37;22.70;;;10.20;99.90;;;;;;2619596;54;20594;-81
2022/12/21 02:15:24;;;;;;;38.23;21.87;;;10.20;99.90;;;;;;2628090;54;20378;-81
2022/12/21 02:39:00;;;;;;;40.80;22.40;;;10.20;99.90;;;;;;2625843;54;20395;-81
2022/12/21 02:44:54;;;;;;;46.80;24.20;;;10.20;99.90;;;;;;2626586;54;20375;-81
2022/12/21 02:50:47;;;;;;;50.87;24.03;;;10.10;99.90;;;;;;2621245;54;20423;-79
2022/12/21 02:56:34;;;;;;;49.60;24.03;;;10.10;99.90;;;;;;2619260;54;20355;-80
2022/12/21 03:13:05;;;;;;;44.33;22.97;;;10.10;99.90;;;;;;2616382;54;20461;-78
2022/12/21 03:22:34;;;;;;;44.47;23.47;;;10.00;99.90;;;;;;2618643;54;20411;-77
2022/12/21 03:28:27;;;;;;;42.03;23.93;;;10.10;99.90;;;;;;2616708;54;20443;-79
2022/12/21 03:40:51;;;;;;;54.33;25.30;;;9.90;99.90;;;;;;2614636;46;20383;-79
2022/12/21 03:59:24;;;;;;;43.57;21.67;;;10.00;99.90;;;;;;2617694;39;20812;-81
2022/12/21 04:05:24;;;;;;;41.63;22.83;;;9.90;99.90;;;;;;2616781;54;20387;-82
2022/12/21 04:12:36;;;;;;;47.17;21.27;;;9.90;99.90;;;;;;2616093;54;20547;-82
2022/12/21 04:17:19;;;;;;;38.53;19.40;;;9.80;99.90;;;;;;2618784;54;20948;-82
2022/12/21 04:29:15;;;;;;;34.77;18.40;;;9.90;99.90;;;;;;2618204;54;20434;-82
2022/12/21 04:35:03;;;;;;;35.10;16.70;;;9.80;99.90;;;;;;2619172;54;20149;-82
2022/12/21 04:40:52;;;;;;;35.50;17.43;;;9.70;99.90;;;;;;2616645;54;20400;-80
2022/12/21 04:46:40;;;;;;;26.33;15.30;;;9.80;99.90;;;;;;2617403;54;20391;-80
2022/12/21 04:52:30;;;;;;;38.80;17.63;;;9.90;99.90;;;;;;2617460;54;20626;-80
2022/12/21 04:58:17;;;;;;;37.77;19.00;;;9.90;99.90;;;;;;2617829;54;20390;-80
2022/12/21 05:04:05;;;;;;;37.10;19.30;;;9.90;99.90;;;;;;2616737;54;20162;-80
2022/12/21 05:09:53;;;;;;;39.20;18.70;;;9.80;99.90;;;;;;2616081;54;20426;-81
2022/12/21 05:15:40;;;;;;;36.37;20.80;;;9.80;99.90;;;;;;2614532;54;20130;-82
2022/12/21 05:21:28;;;;;;;38.03;17.30;;;9.80;99.90;;;;;;2615144;54;20146;-79
2022/12/21 05:27:18;;;;;;;34.60;17.20;;;9.80;99.90;;;;;;2615224;54;20274;-80
2022/12/21 05:33:05;;;;;;;39.60;17.60;;;9.70;99.90;;;;;;2616208;54;20442;-82
2022/12/21 05:38:55;;;;;;;31.07;16.93;;;9.80;99.90;;;;;;2614879;54;20154;-80
2022/12/21 05:44:43;;;;;;;31.87;15.93;;;9.80;99.90;;;;;;2616161;54;20399;-81
2022/12/21 05:50:31;;;;;;;39.07;19.80;;;9.80;99.90;;;;;;2615638;54;20165;-80
2022/12/21 05:56:19;;;;;;;29.80;15.60;;;9.80;99.90;;;;;;2615381;54;20230;-80
2022/12/21 06:02:06;;;;;;;29.37;14.03;;;9.80;99.90;;;;;;2617840;54;20150;-81
2022/12/21 06:07:54;;;;;;;28.50;13.70;;;9.70;99.90;;;;;;2617467;54;20190;-81
2022/12/21 06:13:42;;;;;;;27.60;14.40;;;9.80;99.90;;;;;;2617264;54;20242;-83
2022/12/21 06:22:52;;;;;;;21.97;11.73;;;9.80;99.90;;;;;;2616748;54;20967;-81
2022/12/21 06:28:40;;;;;;;21.47;12.17;;;9.80;99.90;;;;;;2616164;54;21106;-82
2022/12/21 06:34:29;;;;;;;23.70;13.57;;;9.90;99.90;;;;;;2616022;54;21028;-81
2022/12/21 06:40:17;;;;;;;26.17;14.27;;;9.90;99.90;;;;;;2616912;54;20366;-83
2022/12/21 06:46:07;;;;;;;23.83;12.27;;;9.80;99.90;;;;;;2615560;54;20154;-82
2022/12/21 06:51:55;;;;;;;30.47;14.73;;;9.80;99.90;;;;;;2612544;54;20371;-80
2022/12/21 06:57:43;;;;;;;31.60;15.03;;;9.80;99.90;;;;;;2617151;39;20574;-81
2022/12/21 07:03:30;;;;;;;25.53;13.77;;;9.70;99.90;;;;;;2618730;54;20138;-83
2022/12/21 07:09:19;;;;;;;23.83;12.50;;;9.80;99.90;;;;;;2619359;39;20490;-82
2022/12/21 07:15:07;;;;;;;28.43;16.37;;;9.80;99.90;;;;;;2620540;54;20386;-83
2022/12/21 07:21:02;;;;;;;36.20;17.97;;;9.60;99.90;;;;;;2617103;47;20399;-83
2022/12/21 07:26:50;;;;;;;42.43;21.67;;;9.50;99.90;;;;;;2614736;54;20531;-82
2022/12/21 07:32:38;;;;;;;55.33;24.13;;;9.50;99.90;;;;;;2617469;54;20150;-83
2022/12/21 07:35:17;;;;;;;57.50;26.70;;;9.40;99.90;;;;;;2619464;54;21023;-83
2022/12/21 07:37:42;;;;;;;54.80;25.30;;;9.40;99.90;;;;;;2619786;39;20698;-82
2022/12/21 07:43:31;;;;;;;65.90;25.90;;;9.40;99.90;;;;;;2615068;54;20159;-83
2022/12/21 07:49:19;;;;;;;61.17;28.10;;;9.40;99.90;;;;;;2616109;54;20387;-83
2022/12/21 07:55:08;;;;;;;70.23;29.70;;;9.30;99.90;;;;;;2615900;39;20237;-82
2022/12/21 08:01:04;;;;;;;74.90;30.07;;;9.40;99.90;;;;;;2614604;54;20420;-82
2022/12/21 08:07:10;;;;;;;63.10;30.30;;;9.30;99.90;;;;;;2611907;54;20386;-80
2022/12/21 08:12:57;;;;;;;67.90;30.00;;;9.30;99.90;;;;;;2612707;54;20142;-80
2022/12/21 08:22:05;;;;;;;68.70;29.50;;;9.30;99.90;;;;;;2614813;54;20347;-80
2022/12/21 08:27:54;;;;;;;61.23;28.30;;;9.20;99.90;;;;;;2614669;54;20118;-80
2022/12/21 08:33:42;;;;;;;83.37;32.70;;;9.20;99.90;;;;;;2613840;54;20444;-80
2022/12/21 08:39:30;;;;;;;78.80;29.23;;;9.20;99.90;;;;;;2615363;54;20435;-81
2022/12/21 08:45:18;;;;;;;73.50;29.17;;;9.20;99.90;;;;;;2617024;54;20131;-82
2022/12/21 08:51:09;;;;;;;69.10;26.90;;;9.30;99.90;;;;;;2617469;54;20223;-82
2022/12/21 08:56:56;;;;;;;66.03;30.30;;;9.30;99.90;;;;;;2615799;54;20355;-82
2022/12/21 09:02:43;;;;;;;69.37;28.00;;;9.20;99.90;;;;;;2616458;54;20131;-82
2022/12/21 09:08:30;;;;;;;91.00;31.40;;;9.20;99.90;;;;;;2614761;39;20772;-82
2022/12/21 09:11:51;;;;;;;87.53;32.00;;;9.20;99.90;;;;;;2615476;54;20415;-81
2022/12/21 09:17:39;;;;;;;82.90;33.03;;;9.20;99.90;;;;;;2613898;54;20469;-82
2022/12/21 09:23:26;;;;;;;101.07;35.77;;;9.20;99.90;;;;;;2613512;54;20201;-81
2022/12/21 09:29:13;;;;;;;102.67;35.37;;;9.20;99.90;;;;;;2617949;39;20517;-82
2022/12/21 09:35:01;;;;;;;108.20;34.93;;;9.20;99.90;;;;;;2614516;54;20161;-82
2022/12/21 09:40:50;;;;;;;106.77;34.47;;;9.20;99.90;;;;;;2615112;54;20166;-84
2022/12/21 09:46:42;;;;;;;105.43;36.80;;;9.20;99.90;;;;;;2614254;54;20384;-79
2022/12/21 09:52:34;;;;;;;89.40;31.90;;;9.10;99.90;;;;;;2614372;54;21113;-78
2022/12/21 10:17:35;;;;;;;63.13;28.23;;;9.30;99.90;;;;;;2615472;54;20406;-78
2022/12/21 10:26:47;;;;;;;41.93;17.83;;;9.30;99.90;;;;;;2615556;39;20856;-78
2022/12/21 10:32:36;;;;;;;42.67;17.97;;;9.40;99.90;;;;;;2614074;54;20386;-78
2022/12/21 10:38:28;;;;;;;29.93;14.97;;;9.40;99.90;;;;;;2615356;54;20435;-78
2022/12/21 10:44:16;;;;;;;40.57;22.07;;;9.40;99.90;;;;;;2615641;54;20394;-78
2022/12/21 10:56:42;;;;;;;40.50;18.73;;;9.30;99.90;;;;;;2614620;54;20399;-78
2022/12/21 11:02:39;;;;;;;28.03;16.03;;;9.40;99.90;;;;;;2615154;54;20390;-78
2022/12/21 11:08:33;;;;;;;42.40;19.97;;;9.30;99.90;;;;;;2613283;39;20841;-77
2022/12/21 11:14:22;;;;;;;36.87;13.20;;;9.30;99.90;;;;;;2615682;39;20786;-78
2022/12/21 11:36:22;;;;;;;32.57;15.07;;;9.60;99.90;;;;;;2612622;54;20383;-80
2022/12/21 11:42:22;;;;;;;25.13;14.00;;;9.70;99.90;;;;;;2612925;54;20198;-78
2022/12/21 11:44:50;;;;;;;31.60;16.30;;;9.70;99.90;;;;;;2612843;47;20415;-78
2022/12/21 11:51:50;;;;;;;29.80;15.13;;;9.80;99.90;;;;;;2613197;54;20410;-79
2022/12/21 11:57:37;;;;;;;19.67;13.77;;;9.70;99.90;;;;;;2613867;54;20403;-79
2022/12/21 12:10:27;;;;;;;23.93;10.80;;;9.60;99.90;;;;;;2614990;39;20742;-78
2022/12/21 12:13:00;;;;;;;19.73;10.67;;;9.60;99.90;;;;;;2612800;54;20980;-78
2022/12/21 12:15:34;;;;;;;26.13;11.80;;;9.60;99.90;;;;;;2612618;47;20460;-79
2022/12/21 12:24:56;;;;;;;25.10;12.27;;;9.70;99.90;;;;;;2614615;54;20526;-78
2022/12/21 12:27:27;;;;;;;20.23;10.63;;;9.70;99.90;;;;;;2611462;54;20400;-79
2022/12/21 12:39:48;;;;;;;16.30;8.83;;;9.70;99.90;;;;;;2614600;54;20363;-76
2022/12/21 12:52:02;;;;;;;16.10;8.80;;;9.60;99.90;;;;;;2612727;54;20371;-77
2022/12/21 13:04:29;;;;;;;14.60;10.10;;;9.30;99.90;;;;;;2616028;39;20725;-80
2022/12/21 13:30:19;;;;;;;25.23;11.57;;;9.40;99.90;;;;;;2615821;54;20455;-78
2022/12/21 13:36:14;;;;;;;18.53;11.27;;;9.40;99.90;;;;;;2615982;54;20955;-79
2022/12/21 13:38:44;;;;;;;24.73;10.20;;;9.30;99.90;;;;;;2617172;54;20420;-78
2022/12/21 13:44:39;;;;;;;19.23;8.60;;;9.20;99.90;;;;;;2615774;54;20435;-79
2022/12/21 14:00:58;;;;;;;13.13;7.27;;;9.20;99.90;;;;;;2613632;54;20439;-78
2022/12/21 14:07:00;;;;;;;13.97;7.40;;;9.20;99.90;;;;;;2614485;54;20490;-80
2022/12/21 14:12:50;;;;;;;15.67;6.00;;;9.30;99.90;;;;;;2614834;54;20395;-79
2022/12/21 14:18:41;;;;;;;7.63;5.60;;;9.30;99.90;;;;;;2615059;54;20519;-78
2022/12/21 14:41:10;;;;;;;8.60;6.20;;;9.00;99.90;;;;;;2616741;54;20395;-80
2022/12/21 14:47:04;;;;;;;9.27;6.43;;;8.80;99.90;;;;;;2615117;54;20904;-78
2022/12/21 14:53:02;;;;;;;9.23;5.70;;;8.70;99.90;;;;;;2613087;54;20516;-78
2022/12/21 14:59:05;;;;;;;8.53;5.50;;;8.70;99.90;;;;;;2615239;54;20391;-79
2022/12/21 15:04:59;;;;;;;13.20;5.47;;;8.60;99.90;;;;;;2615738;54;20415;-78
2022/12/21 15:10:48;;;;;;;8.27;5.53;;;8.50;99.90;;;;;;2617545;31;20847;-78
2022/12/21 15:36:59;;;;;;;10.33;6.50;;;8.70;99.90;;;;;;2614464;54;20892;-79
2022/12/21 15:55:37;;;;;;;15.30;6.40;;;8.70;99.90;;;;;;2611348;54;20587;-77
2022/12/21 16:01:26;;;;;;;9.77;5.70;;;8.80;99.90;;;;;;2612114;54;20418;-79
2022/12/21 16:07:14;;;;;;;8.27;4.90;;;8.80;99.90;;;;;;2612098;54;20394;-78
2022/12/21 16:13:08;;;;;;;9.90;4.80;;;8.80;99.90;;;;;;2612611;54;20358;-78
2022/12/21 16:18:58;;;;;;;6.03;4.60;;;8.70;99.90;;;;;;2625081;54;20422;-85
2022/12/21 16:31:29;;;;;;;10.03;5.00;;;8.70;99.90;;;;;;2624036;54;20423;-82
2022/12/21 16:37:24;;;;;;;9.60;4.40;;;8.80;99.90;;;;;;2624083;54;20412;-81
2022/12/21 16:43:18;;;;;;;10.13;4.57;;;8.90;99.90;;;;;;2625810;54;20475;-82
2022/12/21 16:49:24;;;;;;;11.20;4.20;;;8.80;99.90;;;;;;2626226;54;20396;-83
2022/12/21 16:51:54;;;;;;;6.30;4.83;;;8.90;99.90;;;;;;2625548;47;21003;-84
2022/12/21 17:00:50;;;;;;;9.03;4.63;;;8.50;99.90;;;;;;2616439;54;20395;-80
2022/12/21 17:06:42;;;;;;;11.93;5.10;;;8.60;99.90;;;;;;2618048;54;20911;-78
2022/12/21 17:12:35;;;;;;;11.10;5.70;;;8.70;99.90;;;;;;2618545;54;20399;-78
2022/12/21 17:18:36;;;;;;;5.40;3.83;;;8.60;99.90;;;;;;2618250;54;20363;-79
2022/12/21 17:24:30;;;;;;;5.47;4.43;;;8.80;99.90;;;;;;2618269;54;20443;-78
2022/12/21 17:30:20;;;;;;;7.07;3.20;;;8.80;99.90;;;;;;2618137;54;20450;-78
2022/12/21 17:36:12;;;;;;;6.50;3.80;;;8.90;99.90;;;;;;2616873;54;20410;-81
2022/12/21 17:42:01;;;;;;;7.13;3.10;;;9.00;99.90;;;;;;2618356;54;20426;-78
2022/12/21 17:47:49;;;;;;;6.80;4.03;;;9.00;99.90;;;;;;2618051;39;20867;-79
2022/12/21 17:53:36;;;;;;;6.67;3.13;;;8.90;99.90;;;;;;2618223;54;20146;-79
2022/12/21 17:59:24;;;;;;;3.73;2.90;;;8.90;99.90;;;;;;2617895;39;20523;-79
2022/12/21 18:11:30;;;;;;;5.87;3.20;;;9.10;99.90;;;;;;2617092;54;20391;-79
2022/12/21 18:17:17;;;;;;;8.53;4.00;;;9.10;99.90;;;;;;2615612;54;20134;-81
2022/12/21 18:23:22;;;;;;;3.83;3.30;;;9.20;99.90;;;;;;2615681;54;20115;-80
2022/12/21 18:29:15;;;;;;;9.07;3.97;;;9.20;99.90;;;;;;2616610;54;20407;-79
2022/12/21 18:32:29;;;;;;;11.00;4.03;;;9.20;99.90;;;;;;2616153;47;20943;-80
2022/12/21 18:34:55;;;;;;;12.10;3.30;;;9.20;99.90;;;;;;2615976;54;20431;-79
2022/12/21 18:40:43;;;;;;;5.93;3.30;;;9.10;99.90;;;;;;2617218;54;20138;-80
2022/12/21 18:46:38;;;;;;;6.47;3.27;;;9.10;99.90;;;;;;2617115;54;20379;-80
2022/12/21 18:52:28;;;;;;;4.90;3.00;;;9.20;99.90;;;;;;2616218;54;20411;-80
2022/12/21 18:58:15;;;;;;;7.23;3.10;;;9.20;99.90;;;;;;2616598;54;20387;-79
2022/12/21 19:04:09;;;;;;;3.70;2.90;;;9.20;99.90;;;;;;2616340;54;20162;-79
2022/12/21 19:09:58;;;;;;;6.50;3.27;;;9.10;99.90;;;;;;2617139;54;20439;-80
2022/12/21 19:15:45;;;;;;;4.30;3.47;;;9.00;99.90;;;;;;2616790;54;20950;-81
2022/12/21 19:21:37;;;;;;;5.20;3.13;;;8.80;99.90;;;;;;2618409;46;20214;-84
2022/12/21 19:27:25;;;;;;;4.53;2.70;;;8.70;99.90;;;;;;2617775;54;20382;-83
2022/12/21 19:37:01;;;;;;;6.43;3.47;;;8.60;99.90;;;;;;2618540;54;20414;-84
2022/12/21 19:42:50;;;;;;;7.47;3.30;;;8.60;99.90;;;;;;2616814;54;20418;-84
2022/12/21 19:48:39;;;;;;;5.90;2.93;;;8.50;99.90;;;;;;2616911;54;20157;-82
2022/12/21 19:54:27;;;;;;;6.20;3.30;;;8.50;99.90;;;;;;2617740;54;20391;-83
2022/12/21 20:00:24;;;;;;;5.13;2.60;;;8.50;99.90;;;;;;2618022;54;20118;-86
2022/12/21 20:06:12;;;;;;;7.13;2.90;;;8.50;99.90;;;;;;2616593;54;20391;-84
2022/12/21 20:12:00;;;;;;;5.33;3.20;;;8.50;99.90;;;;;;2618007;54;20955;-86
2022/12/21 20:17:48;;;;;;;6.13;3.47;;;8.60;99.90;;;;;;2618067;54;20700;-85
2022/12/21 20:23:36;;;;;;;7.73;3.37;;;8.60;99.90;;;;;;2617707;54;20378;-84
2022/12/21 20:29:24;;;;;;;5.40;3.47;;;8.50;99.90;;;;;;2616094;39;20523;-80
2022/12/21 20:32:27;;;;;;;4.87;3.17;;;8.60;99.90;;;;;;2615584;46;20416;-79
2022/12/21 20:34:54;;;;;;;4.60;2.90;;;8.60;99.90;;;;;;2616660;54;20179;-80
2022/12/21 20:40:42;;;;;;;5.83;3.77;;;8.60;99.90;;;;;;2616737;54;20403;-81
2022/12/21 20:46:36;;;;;;;3.50;2.50;;;8.70;99.90;;;;;;2616270;54;20150;-80
2022/12/21 20:52:27;;;;;;;5.57;3.77;;;8.70;99.90;;;;;;2616404;54;20370;-79
2022/12/21 20:58:14;;;;;;;7.63;4.70;;;8.70;99.90;;;;;;2615484;54;20391;-80
2022/12/21 21:04:06;;;;;;;6.27;3.87;;;8.80;99.90;;;;;;2616045;54;20155;-79
2022/12/21 21:09:54;;;;;;;4.30;3.00;;;8.80;99.90;;;;;;2616140;54;20407;-82
2022/12/21 21:15:42;;;;;;;4.57;4.10;;;8.80;99.90;;;;;;2614961;54;20359;-79
2022/12/21 21:27:39;;;;;;;7.87;5.47;;;8.80;99.90;;;;;;2613565;54;20391;-78
2022/12/21 21:37:04;;;;;;;6.63;4.30;;;8.80;99.90;;;;;;2614719;54;20402;-78
2022/12/21 21:42:52;;;;;;;5.70;4.20;;;8.80;99.90;;;;;;2615010;54;20415;-78
2022/12/21 21:48:40;;;;;;;7.57;4.60;;;8.80;99.90;;;;;;2612993;54;20222;-79
2022/12/21 21:54:28;;;;;;;5.87;4.67;;;8.90;99.90;;;;;;2614886;54;20118;-80
2022/12/21 22:00:23;;;;;;;6.60;5.57;;;8.90;99.90;;;;;;2614876;54;20126;-78
2022/12/21 22:06:14;;;;;;;7.23;4.90;;;8.90;99.90;;;;;;2614790;39;20446;-77
2022/12/21 22:12:02;;;;;;;5.97;5.37;;;8.90;99.90;;;;;;2616649;39;20824;-81
2022/12/21 22:17:50;;;;;;;6.60;5.00;;;8.90;99.90;;;;;;2616863;39;20523;-80
2022/12/21 22:32:30;;;;;;;6.70;5.53;;;9.20;99.90;;;;;;2615177;54;20531;-80
2022/12/21 22:47:20;;;;;;;9.50;5.17;;;9.20;99.90;;;;;;2615576;54;20387;-79
2022/12/21 22:59:37;;;;;;;6.50;4.90;;;9.20;99.90;;;;;;2617251;54;20367;-79
2022/12/21 23:05:25;;;;;;;8.50;6.17;;;9.30;99.90;;;;;;2616903;54;20130;-79
